Time;durP1;ratioP1;P1;durP2;ratioP2;P2;SDS_P1;SDS_P2;PMS_P1;PMS_P2;Temp;Humidity;BMP_temperature;BMP_pressure;BME280_temperature;BME280_humidity;BME280_pressure;Samples;Min_cycle;Max_cycle;Signal;HPM_P1;HPM_P2
2023/04/22 00:01:47;;;;;;;;;;;;;;;;;;5052266;28;19929;-61
2023/04/22 00:04:16;;;;;;;;;;;;;;;;;;5051936;28;19971;-60
2023/04/22 00:06:42;;;;;;;;;;;;;;;;;;5051360;28;19936;-61
2023/04/22 00:09:09;;;;;;;;;;;;;;;;;;5052210;28;19925;-61
2023/04/22 00:11:37;;;;;;;;;;;;;;;;;;5052141;28;20024;-61
2023/04/22 00:14:03;;;;;;;;;;;;;;;;;;5051021;28;20632;-61
2023/04/22 00:16:29;;;;;;;;;;;;;;;;;;5052040;28;19925;-61
2023/04/22 00:18:55;;;;;;;;;;;;;;;;;;5052267;28;19920;-61
2023/04/22 00:21:21;;;;;;;;;;;;;;;;;;5051332;28;19925;-61
2023/04/22 00:23:47;;;;;;;;;;;;;;;;;;5051762;28;19929;-60
2023/04/22 00:26:13;;;;;;;;;;;;;;;;;;5051716;28;19924;-61
2023/04/22 00:28:39;;;;;;;;;;;;;;;;;;5050977;28;19936;-61
2023/04/22 00:31:05;;;;;;;;;;;;;;;;;;5051720;28;19924;-61
2023/04/22 00:33:31;;;;;;;;;;;;;;;;;;5051425;28;19921;-61
2023/04/22 00:35:57;;;;;;;;;;;;;;;;;;5051166;28;19990;-61
2023/04/22 00:38:23;;;;;;;;;;;;;;;;;;5051439;28;19941;-62
2023/04/22 00:40:49;;;;;;;;;;;;;;;;;;5051332;28;19932;-61
2023/04/22 00:43:15;;;;;;;;;;;;;;;;;;5050972;28;20367;-61
2023/04/22 00:45:41;;;;;;;;;;;;;;;;;;5051267;28;19931;-61
2023/04/22 00:48:06;;;;;;;;;;;;;;;;;;5050982;28;19921;-60
2023/04/22 00:50:32;;;;;;;;;;;;;;;;;;5050856;28;20059;-61
2023/04/22 00:52:58;;;;;;;;;;;;;;;;;;5050617;28;20288;-61
2023/04/22 00:55:24;;;;;;;;;;;;;;;;;;5051111;28;19927;-61
2023/04/22 00:57:50;;;;;;;;;;;;;;;;;;5050828;28;19982;-61
2023/04/22 01:00:16;;;;;;;;;;;;;;;;;;5049948;28;19924;-62
2023/04/22 01:02:42;;;;;;;;;;;;;;;;;;5049280;28;19925;-61
2023/04/22 01:05:08;;;;;;;;;;;;;;;;;;5050681;28;20043;-61
2023/04/22 01:07:34;;;;;;;;;;;;;;;;;;5049817;28;19925;-61
2023/04/22 01:10:00;;;;;;;;;;;;;;;;;;5050115;28;19971;-61
2023/04/22 01:12:26;;;;;;;;;;;;;;;;;;5050187;28;20341;-61
2023/04/22 01:14:52;;;;;;;;;;;;;;;;;;5050197;28;19920;-61
2023/04/22 01:17:18;;;;;;;;;;;;;;;;;;5050612;28;19932;-61
2023/04/22 01:19:44;;;;;;;;;;;;;;;;;;5050634;28;19925;-61
2023/04/22 01:22:10;;;;;;;;;;;;;;;;;;5049671;28;19924;-61
2023/04/22 01:24:36;;;;;;;;;;;;;;;;;;5049758;28;19951;-61
2023/04/22 01:27:03;;;;;;;;;;;;;;;;;;5048958;28;19983;-61
2023/04/22 01:29:29;;;;;;;;;;;;;;;;;;5049558;28;19991;-61
2023/04/22 01:31:55;;;;;;;;;;;;;;;;;;5050012;28;19920;-61
2023/04/22 01:34:21;;;;;;;;;;;;;;;;;;5049560;28;19943;-61
2023/04/22 01:36:47;;;;;;;;;;;;;;;;;;5049177;28;20031;-61
2023/04/22 01:39:13;;;;;;;;;;;;;;;;;;5049591;28;20019;-61
2023/04/22 01:41:39;;;;;;;;;;;;;;;;;;5049646;28;19981;-61
2023/04/22 01:44:05;;;;;;;;;;;;;;;;;;5049060;28;19960;-61
2023/04/22 01:46:31;;;;;;;;;;;;;;;;;;5049197;28;20395;-61
2023/04/22 01:48:57;;;;;;;;;;;;;;;;;;5049583;28;19970;-61
2023/04/22 01:51:23;;;;;;;;;;;;;;;;;;5048965;28;20264;-61
2023/04/22 01:53:49;;;;;;;;;;;;;;;;;;5050009;28;20474;-60
2023/04/22 01:56:15;;;;;;;;;;;;;;;;;;5049629;28;20268;-60
2023/04/22 01:58:41;;;;;;;;;;;;;;;;;;5049143;28;19924;-61
2023/04/22 02:01:07;;;;;;;;;;;;;;;;;;5047838;28;20026;-60
2023/04/22 02:03:33;;;;;;;;;;;;;;;;;;5049505;28;19948;-61
2023/04/22 02:05:59;;;;;;;;;;;;;;;;;;5048748;28;19925;-61
2023/04/22 02:08:24;;;;;;;;;;;;;;;;;;5049524;28;19921;-61
2023/04/22 02:10:50;;;;;;;;;;;;;;;;;;5049040;28;20549;-61
2023/04/22 02:13:16;;;;;;;;;;;;;;;;;;5048828;28;19921;-61
2023/04/22 02:15:42;;;;;;;;;;;;;;;;;;5049209;28;20279;-61
2023/04/22 02:18:09;;;;;;;;;;;;;;;;;;5049029;28;19928;-61
2023/04/22 02:20:34;;;;;;;;;;;;;;;;;;5048771;28;19962;-61
2023/04/22 02:23:00;;;;;;;;;;;;;;;;;;5049217;28;20023;-61
2023/04/22 02:25:26;;;;;;;;;;;;;;;;;;5048903;28;20505;-60
2023/04/22 02:27:52;;;;;;;;;;;;;;;;;;5049037;28;19921;-61
2023/04/22 02:30:18;;;;;;;;;;;;;;;;;;5049300;28;20391;-61
2023/04/22 02:32:45;;;;;;;;;;;;;;;;;;5049213;28;19932;-61
2023/04/22 02:35:10;;;;;;;;;;;;;;;;;;5048438;28;19925;-61
2023/04/22 02:37:36;;;;;;;;;;;;;;;;;;5051046;28;19921;-61
2023/04/22 02:40:02;;;;;;;;;;;;;;;;;;5052784;28;20472;-61
2023/04/22 02:42:28;;;;;;;;;;;;;;;;;;5052332;28;19959;-61
2023/04/22 02:44:54;;;;;;;;;;;;;;;;;;5051460;28;19975;-61
2023/04/22 02:47:20;;;;;;;;;;;;;;;;;;5052606;28;19929;-61
2023/04/22 02:49:46;;;;;;;;;;;;;;;;;;5052106;28;19925;-61
2023/04/22 02:52:12;;;;;;;;;;;;;;;;;;5052854;28;19924;-61
2023/04/22 02:54:38;;;;;;;;;;;;;;;;;;5052642;28;19924;-61
2023/04/22 02:57:04;;;;;;;;;;;;;;;;;;5052029;28;19974;-61
2023/04/22 02:59:30;;;;;;;;;;;;;;;;;;5052505;28;20413;-61
2023/04/22 03:01:56;;;;;;;;;;;;;;;;;;5052711;28;20294;-61
2023/04/22 03:04:21;;;;;;;;;;;;;;;;;;5052036;28;19921;-61
2023/04/22 03:06:47;;;;;;;;;;;;;;;;;;5052207;28;20123;-61
2023/04/22 03:09:13;;;;;;;;;;;;;;;;;;5052610;28;20199;-61
2023/04/22 03:11:39;;;;;;;;;;;;;;;;;;5051752;28;19982;-61
2023/04/22 03:14:05;;;;;;;;;;;;;;;;;;5052505;28;19921;-61
2023/04/22 03:16:31;;;;;;;;;;;;;;;;;;5052439;28;19921;-61
2023/04/22 03:18:57;;;;;;;;;;;;;;;;;;5051584;28;20402;-61
2023/04/22 03:21:23;;;;;;;;;;;;;;;;;;5052096;28;19931;-61
2023/04/22 03:23:49;;;;;;;;;;;;;;;;;;5052049;28;20348;-61
2023/04/22 03:26:15;;;;;;;;;;;;;;;;;;5051021;28;19936;-61
2023/04/22 03:28:40;;;;;;;;;;;;;;;;;;5052132;28;19955;-61
2023/04/22 03:31:06;;;;;;;;;;;;;;;;;;5052206;28;20016;-61
2023/04/22 03:33:32;;;;;;;;;;;;;;;;;;5051249;28;19921;-61
2023/04/22 03:35:58;;;;;;;;;;;;;;;;;;5051874;28;20306;-61
2023/04/22 03:38:24;;;;;;;;;;;;;;;;;;5051687;28;20406;-61
2023/04/22 03:40:50;;;;;;;;;;;;;;;;;;5051283;28;19924;-61
2023/04/22 03:43:16;;;;;;;;;;;;;;;;;;5051454;28;20306;-61
2023/04/22 03:45:42;;;;;;;;;;;;;;;;;;5051650;28;19978;-61
2023/04/22 03:48:08;;;;;;;;;;;;;;;;;;5050841;28;20280;-61
2023/04/22 03:50:34;;;;;;;;;;;;;;;;;;5050642;28;19927;-61
2023/04/22 03:53:00;;;;;;;;;;;;;;;;;;5051376;28;19932;-61
2023/04/22 03:55:26;;;;;;;;;;;;;;;;;;5051574;28;19950;-61
2023/04/22 03:57:51;;;;;;;;;;;;;;;;;;5050826;28;19921;-61
2023/04/22 04:00:17;;;;;;;;;;;;;;;;;;5050259;28;20019;-61
2023/04/22 04:02:43;;;;;;;;;;;;;;;;;;5051422;28;20012;-61
2023/04/22 04:05:10;;;;;;;;;;;;;;;;;;5050759;28;19977;-60
2023/04/22 04:07:35;;;;;;;;;;;;;;;;;;5051371;28;20288;-61
2023/04/22 04:10:01;;;;;;;;;;;;;;;;;;5051451;28;20038;-61
2023/04/22 04:12:27;;;;;;;;;;;;;;;;;;5050574;28;19924;-60
2023/04/22 04:14:53;;;;;;;;;;;;;;;;;;5051164;28;19920;-60
2023/04/22 04:17:20;;;;;;;;;;;;;;;;;;5051363;28;19929;-60
2023/04/22 04:19:46;;;;;;;;;;;;;;;;;;5050855;28;20260;-60
2023/04/22 04:22:12;;;;;;;;;;;;;;;;;;5050873;28;19921;-60
2023/04/22 04:24:40;;;;;;;;;;;;;;;;;;5050758;28;19925;-61
2023/04/22 04:27:07;;;;;;;;;;;;;;;;;;5050241;28;20398;-61
2023/04/22 04:29:33;;;;;;;;;;;;;;;;;;5051104;28;20260;-61
2023/04/22 04:31:59;;;;;;;;;;;;;;;;;;5050623;28;19928;-61
2023/04/22 04:34:25;;;;;;;;;;;;;;;;;;5050281;28;20597;-61
2023/04/22 04:36:51;;;;;;;;;;;;;;;;;;5051033;28;20236;-61
2023/04/22 04:39:17;;;;;;;;;;;;;;;;;;5050788;28;19925;-61
2023/04/22 04:41:44;;;;;;;;;;;;;;;;;;5049859;28;20294;-61
2023/04/22 04:44:10;;;;;;;;;;;;;;;;;;5050518;28;19928;-61
2023/04/22 04:46:36;;;;;;;;;;;;;;;;;;5048827;28;19932;-61
2023/04/22 04:49:03;;;;;;;;;;;;;;;;;;5049840;28;20015;-61
2023/04/22 04:51:31;;;;;;;;;;;;;;;;;;5050506;28;20369;-61
2023/04/22 04:53:57;;;;;;;;;;;;;;;;;;5050224;28;19932;-61
2023/04/22 04:56:23;;;;;;;;;;;;;;;;;;5049785;28;19974;-61
2023/04/22 04:58:49;;;;;;;;;;;;;;;;;;5050284;28;20391;-61
2023/04/22 05:01:14;;;;;;;;;;;;;;;;;;5050076;28;19924;-61
2023/04/22 05:03:40;;;;;;;;;;;;;;;;;;5049525;28;20358;-61
2023/04/22 05:06:06;;;;;;;;;;;;;;;;;;5050138;28;19924;-61
2023/04/22 05:08:32;;;;;;;;;;;;;;;;;;5050392;28;19921;-60
2023/04/22 05:10:58;;;;;;;;;;;;;;;;;;5049618;28;19925;-61
2023/04/22 05:13:25;;;;;;;;;;;;;;;;;;5050190;28;20272;-61
2023/04/22 05:15:51;;;;;;;;;;;;;;;;;;5050101;28;19924;-61
2023/04/22 05:18:17;;;;;;;;;;;;;;;;;;5049640;28;19924;-61
2023/04/22 05:20:42;;;;;;;;;;;;;;;;;;5049758;28;20300;-61
2023/04/22 05:23:08;;;;;;;;;;;;;;;;;;5049853;28;19925;-61
2023/04/22 05:25:34;;;;;;;;;;;;;;;;;;5049067;28;20053;-61
2023/04/22 05:28:00;;;;;;;;;;;;;;;;;;5049384;28;20206;-61
2023/04/22 05:30:26;;;;;;;;;;;;;;;;;;5049856;28;20177;-61
2023/04/22 05:32:52;;;;;;;;;;;;;;;;;;5048906;28;20391;-61
2023/04/22 05:35:18;;;;;;;;;;;;;;;;;;5049912;28;19932;-61
2023/04/22 05:37:44;;;;;;;;;;;;;;;;;;5049331;28;20314;-61
2023/04/22 05:40:10;;;;;;;;;;;;;;;;;;5049315;28;19982;-61
2023/04/22 05:42:36;;;;;;;;;;;;;;;;;;5049633;28;20132;-61
2023/04/22 05:45:02;;;;;;;;;;;;;;;;;;5049803;28;19925;-61
2023/04/22 05:47:27;;;;;;;;;;;;;;;;;;5048886;28;19947;-61
2023/04/22 05:49:53;;;;;;;;;;;;;;;;;;5049859;28;19925;-61
2023/04/22 05:52:19;;;;;;;;;;;;;;;;;;5049453;28;20263;-61
2023/04/22 05:54:45;;;;;;;;;;;;;;;;;;5047405;28;19968;-61
2023/04/22 05:57:11;;;;;;;;;;;;;;;;;;5049194;28;20398;-61
2023/04/22 05:59:37;;;;;;;;;;;;;;;;;;5049666;28;19924;-61
2023/04/22 06:02:03;;;;;;;;;;;;;;;;;;5048957;28;20295;-61
2023/04/22 06:04:29;;;;;;;;;;;;;;;;;;5049608;28;19920;-61
2023/04/22 06:06:55;;;;;;;;;;;;;;;;;;5047789;28;19928;-61
2023/04/22 06:09:21;;;;;;;;;;;;;;;;;;5048779;28;19932;-62
2023/04/22 06:11:46;;;;;;;;;;;;;;;;;;5048624;28;19929;-60
2023/04/22 06:14:12;;;;;;;;;;;;;;;;;;5053431;28;20012;-61
2023/04/22 06:16:38;;;;;;;;;;;;;;;;;;5052717;28;19921;-61
2023/04/22 06:19:04;;;;;;;;;;;;;;;;;;5053475;28;20199;-61
2023/04/22 06:21:32;;;;;;;;;;;;;;;;;;5053190;28;19925;-61
2023/04/22 06:23:58;;;;;;;;;;;;;;;;;;5052256;28;19929;-61
2023/04/22 06:26:24;;;;;;;;;;;;;;;;;;5052895;28;19972;-61
2023/04/22 06:28:50;;;;;;;;;;;;;;;;;;5052871;28;19971;-60
2023/04/22 06:31:16;;;;;;;;;;;;;;;;;;5052535;28;20059;-61
2023/04/22 06:33:42;;;;;;;;;;;;;;;;;;5053259;28;20451;-61
2023/04/22 06:36:08;;;;;;;;;;;;;;;;;;5053204;28;19968;-60
2023/04/22 06:38:34;;;;;;;;;;;;;;;;;;5052514;28;19925;-60
2023/04/22 06:41:00;;;;;;;;;;;;;;;;;;5052820;28;19928;-60
2023/04/22 06:43:26;;;;;;;;;;;;;;;;;;5053002;28;19986;-61
2023/04/22 06:45:51;;;;;;;;;;;;;;;;;;5052475;28;20375;-60
2023/04/22 06:48:17;;;;;;;;;;;;;;;;;;5052816;28;19927;-60
2023/04/22 06:50:43;;;;;;;;;;;;;;;;;;5052672;28;20370;-60
2023/04/22 06:53:09;;;;;;;;;;;;;;;;;;5052659;28;20015;-60
2023/04/22 06:55:35;;;;;;;;;;;;;;;;;;5052289;28;19926;-60
2023/04/22 06:58:01;;;;;;;;;;;;;;;;;;5052612;28;20401;-60
2023/04/22 07:00:30;;;;;;;;;;;;;;;;;;5052632;28;19927;-61
2023/04/22 07:02:55;;;;;;;;;;;;;;;;;;5051946;28;19971;-60
2023/04/22 07:05:21;;;;;;;;;;;;;;;;;;5051158;28;19925;-62
2023/04/22 07:07:47;;;;;;;;;;;;;;;;;;5052058;28;20020;-60
2023/04/22 07:10:13;;;;;;;;;;;;;;;;;;5051851;28;19970;-60
2023/04/22 07:12:39;;;;;;;;;;;;;;;;;;5052387;28;19929;-60
2023/04/22 07:15:05;;;;;;;;;;;;;;;;;;5052164;28;20322;-61
2023/04/22 07:17:31;;;;;;;;;;;;;;;;;;5050252;28;19936;-61
2023/04/22 07:19:57;;;;;;;;;;;;;;;;;;5052726;28;19955;-61
2023/04/22 07:22:23;;;;;;;;;;;;;;;;;;5052023;28;19972;-60
2023/04/22 07:24:49;;;;;;;;;;;;;;;;;;5050461;28;20385;-61
2023/04/22 07:27:15;;;;;;;;;;;;;;;;;;5052228;28;19931;-61
2023/04/22 07:29:41;;;;;;;;;;;;;;;;;;5052499;28;19946;-61
2023/04/22 07:32:07;;;;;;;;;;;;;;;;;;5051633;28;20011;-61
2023/04/22 07:34:32;;;;;;;;;;;;;;;;;;5051996;28;19921;-61
2023/04/22 07:36:58;;;;;;;;;;;;;;;;;;5052159;28;19924;-61
2023/04/22 07:39:24;;;;;;;;;;;;;;;;;;5051314;28;20406;-61
2023/04/22 07:41:52;;;;;;;;;;;;;;;;;;5052127;28;20018;-61
2023/04/22 07:44:20;;;;;;;;;;;;;;;;;;5052159;28;19928;-61
2023/04/22 07:46:46;;;;;;;;;;;;;;;;;;5051491;28;19931;-61
2023/04/22 07:49:12;;;;;;;;;;;;;;;;;;5052185;28;20015;-61
2023/04/22 07:51:38;;;;;;;;;;;;;;;;;;5050644;28;19927;-61
2023/04/22 07:54:04;;;;;;;;;;;;;;;;;;5051809;28;19925;-60
2023/04/22 07:56:31;;;;;;;;;;;;;;;;;;5052171;28;19924;-61
2023/04/22 07:58:57;;;;;;;;;;;;;;;;;;5052455;28;19928;-61
2023/04/22 08:01:23;;;;;;;;;;;;;;;;;;5051051;28;19921;-61
2023/04/22 08:03:49;;;;;;;;;;;;;;;;;;5051980;28;19925;-61
2023/04/22 08:06:15;;;;;;;;;;;;;;;;;;5051571;28;20299;-61
2023/04/22 08:08:41;;;;;;;;;;;;;;;;;;5051682;28;20019;-61
2023/04/22 08:11:07;;;;;;;;;;;;;;;;;;5051777;28;20284;-61
2023/04/22 08:13:32;;;;;;;;;;;;;;;;;;5052090;28;19952;-61
2023/04/22 08:15:58;;;;;;;;;;;;;;;;;;5051845;28;20267;-61
2023/04/22 08:18:24;;;;;;;;;;;;;;;;;;5052135;28;19921;-61
2023/04/22 08:20:50;;;;;;;;;;;;;;;;;;5051601;28;19925;-61
2023/04/22 08:23:16;;;;;;;;;;;;;;;;;;5051380;28;19924;-61
2023/04/22 08:25:42;;;;;;;;;;;;;;;;;;5050639;28;20019;-61
2023/04/22 08:28:08;;;;;;;;;;;;;;;;;;5052461;28;19973;-61
2023/04/22 08:30:34;;;;;;;;;;;;;;;;;;5051394;28;19925;-61
2023/04/22 08:33:00;;;;;;;;;;;;;;;;;;5052693;28;20272;-61
2023/04/22 08:35:26;;;;;;;;;;;;;;;;;;5051811;28;19921;-61
2023/04/22 08:37:51;;;;;;;;;;;;;;;;;;5051462;28;19943;-61
2023/04/22 08:40:17;;;;;;;;;;;;;;;;;;5051920;28;19921;-61
2023/04/22 08:42:43;;;;;;;;;;;;;;;;;;5052044;28;19924;-61
2023/04/22 08:45:10;;;;;;;;;;;;;;;;;;5051428;28;20426;-61
2023/04/22 08:47:37;;;;;;;;;;;;;;;;;;5051431;28;20294;-62
2023/04/22 08:50:05;;;;;;;;;;;;;;;;;;5050308;28;19929;-62
2023/04/22 08:52:31;;;;;;;;;;;;;;;;;;5051268;28;20579;-62
2023/04/22 08:54:56;;;;;;;;;;;;;;;;;;5051947;28;19932;-62
2023/04/22 08:57:22;;;;;;;;;;;;;;;;;;5051788;28;19921;-62
2023/04/22 08:59:48;;;;;;;;;;;;;;;;;;5051179;28;19956;-61
2023/04/22 09:02:14;;;;;;;;;;;;;;;;;;5051551;28;20168;-61
2023/04/22 09:04:42;;;;;;;;;;;;;;;;;;5051129;28;19994;-61
2023/04/22 09:07:08;;;;;;;;;;;;;;;;;;5050567;28;20410;-61
2023/04/22 09:09:33;;;;;;;;;;;;;;;;;;5051100;28;19921;-61
2023/04/22 09:12:00;;;;;;;;;;;;;;;;;;5051353;28;19929;-61
2023/04/22 09:14:25;;;;;;;;;;;;;;;;;;5051230;28;20059;-61
2023/04/22 09:16:51;;;;;;;;;;;;;;;;;;5051183;28;20015;-61
2023/04/22 09:19:18;;;;;;;;;;;;;;;;;;5051159;28;20324;-61
2023/04/22 09:21:44;;;;;;;;;;;;;;;;;;5049450;28;19937;-61
2023/04/22 09:24:10;;;;;;;;;;;;;;;;;;5050449;28;19939;-61
2023/04/22 09:26:35;;;;;;;;;;;;;;;;;;5050456;28;19936;-61
2023/04/22 09:29:03;;;;;;;;;;;;;;;;;;5050249;28;19944;-61
2023/04/22 09:31:29;;;;;;;;;;;;;;;;;;5051032;28;20200;-62
2023/04/22 09:33:55;;;;;;;;;;;;;;;;;;5050405;28;20700;-62
2023/04/22 09:36:21;;;;;;;;;;;;;;;;;;5049345;28;20022;-62
2023/04/22 09:38:47;;;;;;;;;;;;;;;;;;5049825;28;19931;-62
2023/04/22 09:41:13;;;;;;;;;;;;;;;;;;5049764;28;19924;-62
2023/04/22 09:43:39;;;;;;;;;;;;;;;;;;5049392;28;19952;-62
2023/04/22 09:46:05;;;;;;;;;;;;;;;;;;5049650;28;19932;-62
2023/04/22 09:48:31;;;;;;;;;;;;;;;;;;5043125;28;19925;-62
2023/04/22 09:50:57;;;;;;;;;;;;;;;;;;5029106;28;20387;-62
2023/04/22 09:53:23;;;;;;;;;;;;;;;;;;5030061;28;19921;-61
2023/04/22 09:55:49;;;;;;;;;;;;;;;;;;5029897;28;19959;-62
2023/04/22 09:58:15;;;;;;;;;;;;;;;;;;5029369;28;19925;-61
2023/04/22 10:00:41;;;;;;;;;;;;;;;;;;5029763;28;19987;-61
2023/04/22 10:03:07;;;;;;;;;;;;;;;;;;5029977;28;19925;-62
2023/04/22 10:05:36;;;;;;;;;;;;;;;;;;5029588;28;19929;-61
2023/04/22 10:08:02;;;;;;;;;;;;;;;;;;5029173;28;20011;-62
2023/04/22 10:10:28;;;;;;;;;;;;;;;;;;5029803;28;20020;-62
2023/04/22 10:12:54;;;;;;;;;;;;;;;;;;5029810;28;19925;-61
2023/04/22 10:15:20;;;;;;;;;;;;;;;;;;5028948;28;20019;-62
2023/04/22 10:17:45;;;;;;;;;;;;;;;;;;5029901;28;20051;-62
2023/04/22 10:20:14;;;;;;;;;;;;;;;;;;5029267;28;20008;-62
2023/04/22 10:22:41;;;;;;;;;;;;;;;;;;5028911;28;19937;-62
2023/04/22 10:25:07;;;;;;;;;;;;;;;;;;5029739;28;19924;-62
2023/04/22 10:27:33;;;;;;;;;;;;;;;;;;5048713;28;20378;-62
2023/04/22 10:29:59;;;;;;;;;;;;;;;;;;5049418;28;19925;-62
2023/04/22 10:32:25;;;;;;;;;;;;;;;;;;5049469;28;19979;-62
2023/04/22 10:34:51;;;;;;;;;;;;;;;;;;5049296;28;19924;-62
2023/04/22 10:37:17;;;;;;;;;;;;;;;;;;5048695;28;19950;-62
2023/04/22 10:39:43;;;;;;;;;;;;;;;;;;5049052;28;20448;-62
2023/04/22 10:42:09;;;;;;;;;;;;;;;;;;5048954;28;19957;-62
2023/04/22 10:44:34;;;;;;;;;;;;;;;;;;5048784;28;19928;-62
2023/04/22 10:47:00;;;;;;;;;;;;;;;;;;5049441;28;19925;-62
2023/04/22 10:49:26;;;;;;;;;;;;;;;;;;5049335;28;20531;-62
2023/04/22 10:51:52;;;;;;;;;;;;;;;;;;5048135;28;19931;-62
2023/04/22 10:54:18;;;;;;;;;;;;;;;;;;5049119;28;19971;-62
2023/04/22 10:56:44;;;;;;;;;;;;;;;;;;5048905;28;19921;-62
2023/04/22 10:59:10;;;;;;;;;;;;;;;;;;5051274;28;19929;-62
2023/04/22 11:01:36;;;;;;;;;;;;;;;;;;5052632;28;20406;-62
2023/04/22 11:04:02;;;;;;;;;;;;;;;;;;5052574;28;19924;-62
2023/04/22 11:06:29;;;;;;;;;;;;;;;;;;5051719;28;20337;-62
2023/04/22 11:08:55;;;;;;;;;;;;;;;;;;5052385;28;19921;-62
2023/04/22 11:11:21;;;;;;;;;;;;;;;;;;5052238;28;19974;-62
2023/04/22 11:13:49;;;;;;;;;;;;;;;;;;5050564;28;20390;-62
2023/04/22 11:16:15;;;;;;;;;;;;;;;;;;5052377;28;20442;-62
2023/04/22 11:18:41;;;;;;;;;;;;;;;;;;5052052;28;19925;-62
2023/04/22 11:21:08;;;;;;;;;;;;;;;;;;5051373;28;19921;-62
2023/04/22 11:23:34;;;;;;;;;;;;;;;;;;5051840;28;20099;-62
2023/04/22 11:26:00;;;;;;;;;;;;;;;;;;5051973;28;19933;-62
2023/04/22 11:28:26;;;;;;;;;;;;;;;;;;5051590;28;19927;-62
2023/04/22 11:30:52;;;;;;;;;;;;;;;;;;5051793;28;20406;-62
2023/04/22 11:33:18;;;;;;;;;;;;;;;;;;5052093;28;19925;-62
2023/04/22 11:35:44;;;;;;;;;;;;;;;;;;5051399;28;19927;-62
2023/04/22 11:38:13;;;;;;;;;;;;;;;;;;5051863;28;19924;-62
2023/04/22 11:40:39;;;;;;;;;;;;;;;;;;5051919;28;20031;-62
2023/04/22 11:43:05;;;;;;;;;;;;;;;;;;5051361;28;19921;-62
2023/04/22 11:45:31;;;;;;;;;;;;;;;;;;5051713;28;19920;-62
2023/04/22 11:47:57;;;;;;;;;;;;;;;;;;5050120;28;19927;-62
2023/04/22 11:50:22;;;;;;;;;;;;;;;;;;5051244;28;20241;-62
2023/04/22 11:52:49;;;;;;;;;;;;;;;;;;5051827;28;20383;-62
2023/04/22 11:55:15;;;;;;;;;;;;;;;;;;5051758;28;19921;-62
2023/04/22 11:57:41;;;;;;;;;;;;;;;;;;5050949;28;19927;-62
2023/04/22 12:00:07;;;;;;;;;;;;;;;;;;5052079;28;19966;-62
2023/04/22 12:02:32;;;;;;;;;;;;;;;;;;5051478;28;19971;-62
2023/04/22 12:04:59;;;;;;;;;;;;;;;;;;5050783;28;19924;-62
2023/04/22 12:07:25;;;;;;;;;;;;;;;;;;5051257;28;20393;-62
2023/04/22 12:09:51;;;;;;;;;;;;;;;;;;5050268;28;19939;-62
2023/04/22 12:12:17;;;;;;;;;;;;;;;;;;5050698;28;20011;-62
2023/04/22 12:14:43;;;;;;;;;;;;;;;;;;5051385;28;20377;-62
2023/04/22 12:17:10;;;;;;;;;;;;;;;;;;5051128;28;20410;-62
2023/04/22 12:19:36;;;;;;;;;;;;;;;;;;5050727;28;20008;-62
2023/04/22 12:22:02;;;;;;;;;;;;;;;;;;5051021;28;20422;-62
2023/04/22 12:24:28;;;;;;;;;;;;;;;;;;5050765;28;19972;-62
2023/04/22 12:26:54;;;;;;;;;;;;;;;;;;5050621;28;19972;-62
2023/04/22 12:29:20;;;;;;;;;;;;;;;;;;5052095;28;20004;-62
2023/04/22 12:31:46;;;;;;;;;;;;;;;;;;5051857;28;20077;-62
2023/04/22 12:34:12;;;;;;;;;;;;;;;;;;5051425;28;19967;-62
2023/04/22 12:36:37;;;;;;;;;;;;;;;;;;5051659;28;20027;-62
2023/04/22 12:39:03;;;;;;;;;;;;;;;;;;5051596;28;19927;-62
2023/04/22 12:41:29;;;;;;;;;;;;;;;;;;5049025;28;19932;-62
2023/04/22 12:43:55;;;;;;;;;;;;;;;;;;5051050;28;19956;-62
2023/04/22 12:46:21;;;;;;;;;;;;;;;;;;5049641;28;19967;-62
2023/04/22 12:48:47;;;;;;;;;;;;;;;;;;5050238;28;19928;-62
2023/04/22 12:51:13;;;;;;;;;;;;;;;;;;5050551;28;19975;-62
2023/04/22 12:53:39;;;;;;;;;;;;;;;;;;5050232;28;19921;-62
2023/04/22 12:56:05;;;;;;;;;;;;;;;;;;5050013;28;19927;-62
2023/04/22 12:58:31;;;;;;;;;;;;;;;;;;5050683;28;20303;-62
2023/04/22 13:00:57;;;;;;;;;;;;;;;;;;5050716;28;20125;-62
2023/04/22 13:03:23;;;;;;;;;;;;;;;;;;5049496;28;20502;-62
2023/04/22 13:05:48;;;;;;;;;;;;;;;;;;5050268;28;19925;-62
2023/04/22 13:08:15;;;;;;;;;;;;;;;;;;5049806;28;20387;-62
2023/04/22 13:10:40;;;;;;;;;;;;;;;;;;5049725;28;20078;-62
2023/04/22 13:13:07;;;;;;;;;;;;;;;;;;5050434;28;20004;-62
2023/04/22 13:15:33;;;;;;;;;;;;;;;;;;5050084;28;19972;-62
2023/04/22 13:17:59;;;;;;;;;;;;;;;;;;5050796;28;19963;-62
2023/04/22 13:20:25;;;;;;;;;;;;;;;;;;5048708;28;20019;-62
2023/04/22 13:22:50;;;;;;;;;;;;;;;;;;5049536;28;19938;-62
2023/04/22 13:25:16;;;;;;;;;;;;;;;;;;5050143;28;19925;-62
2023/04/22 13:27:42;;;;;;;;;;;;;;;;;;5049499;28;19971;-62
2023/04/22 13:30:08;;;;;;;;;;;;;;;;;;5050245;28;20330;-62
2023/04/22 13:32:34;;;;;;;;;;;;;;;;;;5048621;28;19920;-62
2023/04/22 13:35:00;;;;;;;;;;;;;;;;;;5047866;28;19935;-62
2023/04/22 13:37:26;;;;;;;;;;;;;;;;;;5049870;28;19928;-62
2023/04/22 13:39:52;;;;;;;;;;;;;;;;;;5049781;28;20422;-62
2023/04/22 13:42:18;;;;;;;;;;;;;;;;;;5049262;28;19947;-61
2023/04/22 13:44:44;;;;;;;;;;;;;;;;;;5049810;28;19921;-62
2023/04/22 13:47:10;;;;;;;;;;;;;;;;;;5049434;28;20392;-62
2023/04/22 13:49:36;;;;;;;;;;;;;;;;;;5049134;28;19954;-62
2023/04/22 13:52:01;;;;;;;;;;;;;;;;;;5049227;28;20404;-62
2023/04/22 13:54:27;;;;;;;;;;;;;;;;;;5048315;28;20259;-62
2023/04/22 13:56:53;;;;;;;;;;;;;;;;;;5049083;28;19988;-62
2023/04/22 13:59:19;;;;;;;;;;;;;;;;;;5049667;28;19925;-62
2023/04/22 14:01:45;;;;;;;;;;;;;;;;;;5049290;28;20008;-62
2023/04/22 14:04:11;;;;;;;;;;;;;;;;;;5047376;28;19999;-62
2023/04/22 14:06:37;;;;;;;;;;;;;;;;;;5049114;28;19924;-62
2023/04/22 14:09:03;;;;;;;;;;;;;;;;;;5049774;28;19920;-62
2023/04/22 14:11:29;;;;;;;;;;;;;;;;;;5048868;28;19931;-62
2023/04/22 14:13:55;;;;;;;;;;;;;;;;;;5049386;28;20329;-62
2023/04/22 14:16:21;;;;;;;;;;;;;;;;;;5049379;28;19928;-62
2023/04/22 14:18:47;;;;;;;;;;;;;;;;;;5049078;28;19977;-62
2023/04/22 14:21:13;;;;;;;;;;;;;;;;;;5048999;28;19936;-62
2023/04/22 14:23:39;;;;;;;;;;;;;;;;;;5048961;28;19925;-62
2023/04/22 14:26:05;;;;;;;;;;;;;;;;;;5048330;28;20375;-62
2023/04/22 14:28:31;;;;;;;;;;;;;;;;;;5049206;28;19924;-62
2023/04/22 14:30:57;;;;;;;;;;;;;;;;;;5049256;28;19920;-62
2023/04/22 14:33:23;;;;;;;;;;;;;;;;;;5050177;28;19925;-62
2023/04/22 14:35:49;;;;;;;;;;;;;;;;;;5053226;28;19921;-62
2023/04/22 14:38:15;;;;;;;;;;;;;;;;;;5053021;28;19921;-62
2023/04/22 14:40:41;;;;;;;;;;;;;;;;;;5052369;28;19955;-62
2023/04/22 14:43:07;;;;;;;;;;;;;;;;;;5053155;28;19920;-62
2023/04/22 14:45:33;;;;;;;;;;;;;;;;;;5053200;28;19921;-61
2023/04/22 14:47:59;;;;;;;;;;;;;;;;;;5051071;28;20351;-62
2023/04/22 14:50:25;;;;;;;;;;;;;;;;;;5052620;28;20391;-62
2023/04/22 14:52:51;;;;;;;;;;;;;;;;;;5052712;28;19921;-62
2023/04/22 14:55:17;;;;;;;;;;;;;;;;;;5052613;28;19920;-62
2023/04/22 14:57:43;;;;;;;;;;;;;;;;;;5052336;28;20311;-62
2023/04/22 15:00:09;;;;;;;;;;;;;;;;;;5053079;28;19947;-62
2023/04/22 15:02:35;;;;;;;;;;;;;;;;;;5051771;28;19921;-62
2023/04/22 15:05:01;;;;;;;;;;;;;;;;;;5052665;28;19929;-62
2023/04/22 15:07:26;;;;;;;;;;;;;;;;;;5052139;28;20371;-62
2023/04/22 15:09:52;;;;;;;;;;;;;;;;;;5051968;28;19925;-62
2023/04/22 15:12:18;;;;;;;;;;;;;;;;;;5052468;28;20318;-62
2023/04/22 15:14:47;;;;;;;;;;;;;;;;;;5052407;28;19932;-62
2023/04/22 15:17:13;;;;;;;;;;;;;;;;;;5051706;28;19986;-62
2023/04/22 15:19:39;;;;;;;;;;;;;;;;;;5052345;28;20361;-62
2023/04/22 15:22:05;;;;;;;;;;;;;;;;;;5052244;28;20017;-62
2023/04/22 15:24:31;;;;;;;;;;;;;;;;;;5051170;28;19933;-62
2023/04/22 15:26:57;;;;;;;;;;;;;;;;;;5051928;28;19980;-62
2023/04/22 15:29:23;;;;;;;;;;;;;;;;;;5052386;28;19924;-62
2023/04/22 15:31:49;;;;;;;;;;;;;;;;;;5051671;28;20367;-62
2023/04/22 15:34:15;;;;;;;;;;;;;;;;;;5052121;28;19921;-61
2023/04/22 15:36:41;;;;;;;;;;;;;;;;;;5052343;28;19920;-62
2023/04/22 15:39:10;;;;;;;;;;;;;;;;;;5051825;28;20182;-62
2023/04/22 15:41:35;;;;;;;;;;;;;;;;;;5051762;28;20022;-62
2023/04/22 15:44:02;;;;;;;;;;;;;;;;;;5051582;28;19979;-62
2023/04/22 15:46:28;;;;;;;;;;;;;;;;;;5050891;28;20000;-62
2023/04/22 15:48:54;;;;;;;;;;;;;;;;;;5052231;28;19921;-62
2023/04/22 15:51:20;;;;;;;;;;;;;;;;;;5051888;28;20294;-62
2023/04/22 15:53:48;;;;;;;;;;;;;;;;;;5051160;28;19921;-62
2023/04/22 15:56:14;;;;;;;;;;;;;;;;;;5051812;28;19921;-62
2023/04/22 15:58:40;;;;;;;;;;;;;;;;;;5051915;28;19929;-61
2023/04/22 16:01:06;;;;;;;;;;;;;;;;;;5051125;28;19929;-62
2023/04/22 16:03:32;;;;;;;;;;;;;;;;;;5051565;28;19921;-62
2023/04/22 16:05:58;;;;;;;;;;;;;;;;;;5051595;28;19925;-62
2023/04/22 16:08:24;;;;;;;;;;;;;;;;;;5051169;28;19927;-61
2023/04/22 16:10:50;;;;;;;;;;;;;;;;;;5051975;28;19928;-62
2023/04/22 16:13:16;;;;;;;;;;;;;;;;;;5051755;28;20004;-62
2023/04/22 16:15:42;;;;;;;;;;;;;;;;;;5050886;28;19968;-62
2023/04/22 16:18:08;;;;;;;;;;;;;;;;;;5051438;28;19960;-62
2023/04/22 16:20:34;;;;;;;;;;;;;;;;;;5051879;28;20418;-62
2023/04/22 16:23:00;;;;;;;;;;;;;;;;;;5051074;28;20047;-62
2023/04/22 16:25:26;;;;;;;;;;;;;;;;;;5050952;28;19929;-61
2023/04/22 16:27:52;;;;;;;;;;;;;;;;;;5050998;28;20449;-62
2023/04/22 16:30:18;;;;;;;;;;;;;;;;;;5051294;28;20007;-61
2023/04/22 16:32:44;;;;;;;;;;;;;;;;;;5050635;28;19985;-61
2023/04/22 16:35:10;;;;;;;;;;;;;;;;;;5051132;28;19928;-62
2023/04/22 16:37:36;;;;;;;;;;;;;;;;;;5051388;28;19927;-61